Time;durP1;ratioP1;P1;durP2;ratioP2;P2;SDS_P1;SDS_P2;PMS_P1;PMS_P2;Temp;Humidity;BMP_temperature;BMP_pressure;BME280_temperature;BME280_humidity;BME280_pressure;Samples;Min_cycle;Max_cycle;Signal;HPM_P1;HPM_P2
2022/07/07 00:03:31;;;;;;;3.70;1.90;;;;;;;15.01;61.20;96580.75;10326823;28;98892;-69
2022/07/07 00:08:35;;;;;;;6.05;1.88;;;;;;;14.89;61.48;96576.84;10331309;28;97033;-69
2022/07/07 00:13:38;;;;;;;3.45;2.17;;;;;;;14.82;61.39;96573.19;10330345;28;98515;-69
2022/07/07 00:18:41;;;;;;;4.30;1.85;;;;;;;14.87;61.04;96576.16;10330247;28;96821;-69
2022/07/07 00:23:45;;;;;;;4.72;1.90;;;;;;;14.98;60.88;96573.19;10325360;28;98608;-69
2022/07/07 00:28:49;;;;;;;4.23;1.80;;;;;;;14.89;60.72;96582.09;10329095;28;99377;-68
2022/07/07 00:33:52;;;;;;;4.30;1.92;;;;;;;14.83;60.42;96573.03;10328099;28;97040;-69
2022/07/07 00:38:57;;;;;;;2.33;1.67;;;;;;;14.75;60.88;96584.41;10330070;28;97640;-68
2022/07/07 00:44:00;;;;;;;;;;;;;;;14.66;60.95;96589.81;10326600;28;96954;-69
2022/07/07 00:49:03;;;;;;;2.70;1.88;;;;;;;14.52;61.32;96586.88;10318711;28;97721;-69
2022/07/07 00:54:09;;;;;;;2.50;1.73;;;;;;;14.49;61.35;96583.75;10314023;28;98940;-68
2022/07/07 00:59:13;;;;;;;3.88;1.75;;;;;;;14.49;61.42;96578.50;10338685;28;98828;-69
2022/07/07 01:04:17;;;;;;;4.60;2.47;;;;;;;14.42;61.46;96583.56;10337765;28;97743;-69
2022/07/07 01:09:23;;;;;;;4.38;2.03;;;;;;;14.44;61.38;96586.03;10341549;28;99084;-69
2022/07/07 01:14:28;;;;;;;4.28;2.10;;;;;;;14.40;62.04;96580.25;10344283;28;97696;-69
2022/07/07 01:19:31;;;;;;;3.25;2.10;;;;;;;14.35;61.95;96583.41;10342853;28;99081;-69
2022/07/07 01:24:35;;;;;;;3.25;1.77;;;;;;;14.29;61.52;96584.00;10335273;28;96862;-68
2022/07/07 01:29:39;;;;;;;4.83;2.10;;;;;;;14.16;62.32;96586.31;10340504;28;98724;-69
2022/07/07 01:34:45;;;;;;;3.65;1.80;;;;;;;14.15;62.33;96577.59;10336819;28;98700;-68
2022/07/07 01:39:49;;;;;;;3.15;1.60;;;;;;;14.13;62.79;96573.50;10331882;28;98641;-69
2022/07/07 01:44:52;;;;;;;3.13;1.80;;;;;;;13.98;62.45;96576.75;10344022;28;97672;-69
2022/07/07 01:49:55;;;;;;;4.22;1.90;;;;;;;13.77;63.48;96571.91;10340480;28;98858;-69
2022/07/07 01:54:59;;;;;;;3.25;1.60;;;;;;;13.74;62.94;96574.03;10329931;28;98306;-68
2022/07/07 02:00:02;;;;;;;7.80;3.40;;;;;;;13.74;62.75;96574.03;10323014;28;97821;-69
2022/07/07 02:05:05;;;;;;;3.17;1.75;;;;;;;13.74;62.53;96574.88;10332807;28;97374;-69
2022/07/07 02:10:10;;;;;;;7.05;3.20;;;;;;;13.78;63.50;96576.19;10334793;28;96891;-68
2022/07/07 02:15:13;;;;;;;7.88;3.08;;;;;;;13.79;62.89;96569.13;10338639;28;98465;-69
2022/07/07 02:20:16;;;;;;;9.00;4.05;;;;;;;13.76;63.03;96577.34;10329632;28;100026;-69
2022/07/07 02:25:20;;;;;;;9.18;3.80;;;;;;;13.75;62.69;96580.94;10333106;28;96831;-68
2022/07/07 02:30:23;;;;;;;7.37;3.57;;;;;;;13.70;63.09;96577.97;10326336;28;97312;-68
2022/07/07 02:35:26;;;;;;;7.13;2.83;;;;;;;13.58;63.57;96591.38;10333621;28;96886;-68
2022/07/07 02:40:30;;;;;;;7.20;3.28;;;;;;;13.39;64.28;96592.47;10332916;28;98465;-69
2022/07/07 02:45:33;;;;;;;7.30;3.13;;;;;;;13.21;65.20;96595.13;10333430;28;98425;-68
2022/07/07 02:50:36;;;;;;;6.43;3.38;;;;;;;13.11;65.05;96599.66;10338402;28;97017;-69
2022/07/07 02:55:41;;;;;;;4.95;3.03;;;;;;;13.04;65.68;96603.88;10330682;28;97105;-68
2022/07/07 03:00:44;;;;;;;4.40;2.47;;;;;;;13.00;66.31;96605.19;10346447;28;98914;-68
2022/07/07 03:05:47;;;;;;;5.65;2.90;;;;;;;12.95;66.57;96602.19;10331692;28;98756;-69
2022/07/07 03:10:51;;;;;;;5.80;2.30;;;;;;;12.86;67.16;96611.75;10345604;28;97542;-68
2022/07/07 03:15:55;;;;;;;4.10;2.57;;;;;;;12.82;67.04;96613.03;10334046;28;97194;-68
2022/07/07 03:20:58;;;;;;;4.95;2.20;;;;;;;12.77;67.19;96624.00;10337656;28;96780;-68
2022/07/07 03:26:03;;;;;;;5.15;2.67;;;;;;;12.71;68.27;96614.09;10337888;28;97216;-69
2022/07/07 03:31:06;;;;;;;4.17;2.53;;;;;;;12.65;68.24;96614.72;10334357;28;97464;-68
2022/07/07 03:36:09;;;;;;;2.85;1.98;;;;;;;12.61;68.01;96616.81;10335884;28;96769;-68
2022/07/07 03:41:13;;;;;;;4.28;2.40;;;;;;;12.52;68.55;96614.28;10338551;28;97660;-68
2022/07/07 03:46:16;;;;;;;4.20;2.33;;;;;;;12.36;69.31;96621.00;10338703;28;96997;-68
2022/07/07 03:51:20;;;;;;;4.25;2.22;;;;;;;12.33;69.29;96621.31;10342886;28;96878;-68
2022/07/07 03:56:24;;;;;;;3.50;2.33;;;;;;;12.39;69.67;96619.91;10333114;28;97970;-68
2022/07/07 04:01:27;;;;;;;3.60;2.30;;;;;;;12.34;69.53;96622.16;10323019;28;98477;-68
2022/07/07 04:06:31;;;;;;;3.10;2.28;;;;;;;12.41;69.54;96620.56;10316875;28;97198;-68
2022/07/07 04:11:35;;;;;;;5.15;2.42;;;;;;;12.41;69.51;96618.75;10330577;28;96854;-68
2022/07/07 04:16:38;;;;;;;3.83;1.98;;;;;;;12.38;69.74;96619.06;10317769;28;97121;-69
2022/07/07 04:21:41;;;;;;;4.05;2.92;;;;;;;12.41;69.76;96617.94;10319705;28;96882;-68
2022/07/07 04:26:46;;;;;;;9.68;3.53;;;;;;;12.58;69.17;96616.28;10302904;28;96906;-68
2022/07/07 04:31:49;;;;;;;8.63;3.17;;;;;;;12.74;68.09;96618.22;10320342;28;98108;-68
2022/07/07 04:36:52;;;;;;;8.30;2.88;;;;;;;12.81;68.09;96625.31;10328447;28;97602;-68
2022/07/07 04:41:56;;;;;;;6.07;3.00;;;;;;;12.89;68.59;96621.97;10316619;28;98789;-69
2022/07/07 04:46:59;;;;;;;6.07;2.90;;;;;;;13.04;68.45;96624.84;10325941;28;97146;-69
2022/07/07 04:52:02;;;;;;;6.53;3.30;;;;;;;13.20;67.88;96630.22;10318319;28;98891;-69
2022/07/07 04:57:07;;;;;;;7.38;2.97;;;;;;;13.43;67.88;96629.72;10319604;28;97616;-70
2022/07/07 05:02:09;;;;;;;5.77;2.93;;;;;;;13.58;67.39;96635.19;10312797;28;96974;-70
2022/07/07 05:07:13;;;;;;;5.25;2.90;;;;;;;13.60;66.37;96633.22;10321484;28;98127;-70
2022/07/07 05:12:17;;;;;;;7.05;2.70;;;;;;;13.70;66.58;96635.72;10315265;28;97746;-70
2022/07/07 05:17:20;;;;;;;5.45;3.15;;;;;;;13.88;66.23;96641.72;10329378;28;100525;-70
2022/07/07 05:22:23;;;;;;;4.60;2.38;;;;;;;14.09;65.73;96645.72;10326494;28;100843;-70
2022/07/07 05:27:27;;;;;;;6.57;3.15;;;;;;;14.19;65.07;96641.13;10323395;28;96799;-70
2022/07/07 05:32:30;;;;;;;3.70;2.40;;;;;;;14.35;65.83;96646.47;10332906;28;96951;-70
2022/07/07 05:37:33;;;;;;;4.88;2.47;;;;;;;14.57;65.46;96644.19;10329316;28;96834;-70
2022/07/07 05:42:38;;;;;;;5.45;2.90;;;;;;;14.75;64.86;96642.25;10333931;28;98972;-70
2022/07/07 05:47:41;;;;;;;5.53;2.67;;;;;;;14.89;64.70;96656.56;10340655;28;97917;-70
2022/07/07 05:52:43;;;;;;;6.20;2.80;;;;;;;15.03;64.92;96662.97;10346726;28;97900;-70
2022/07/07 05:57:48;;;;;;;4.90;2.40;;;;;;;15.26;65.75;96664.91;10328050;28;96917;-70
2022/07/07 06:02:51;;;;;;;3.43;2.10;;;;;;;15.51;65.05;96668.31;10335402;28;98674;-70
2022/07/07 06:07:54;;;;;;;4.57;2.60;;;;;;;15.64;63.28;96668.66;10327593;28;97563;-70
2022/07/07 06:12:58;;;;;;;5.38;2.20;;;;;;;15.82;61.50;96665.78;10318137;28;97095;-71
2022/07/07 06:18:01;;;;;;;4.13;2.13;;;;;;;16.11;61.08;96664.38;10321408;28;98751;-70
2022/07/07 06:23:11;;;;;;;3.78;1.65;;;;;;;16.30;59.81;96663.13;10324625;28;96937;-70
2022/07/07 06:28:15;;;;;;;3.72;2.13;;;;;;;16.53;58.21;96652.59;10331090;28;96975;-70
2022/07/07 06:33:18;;;;;;;4.80;1.58;;;;;;;16.75;56.97;96647.56;10326824;28;97081;-70
2022/07/07 06:38:21;;;;;;;2.00;1.30;;;;;;;16.93;56.07;96653.31;10325978;28;96821;-70
2022/07/07 06:43:26;;;;;;;3.97;1.85;;;;;;;17.07;55.68;96661.47;10339944;28;96790;-70
2022/07/07 06:48:29;;;;;;;2.92;1.30;;;;;;;17.15;55.39;96666.69;10338794;28;96785;-70
2022/07/07 06:53:32;;;;;;;3.38;1.33;;;;;;;17.33;54.58;96653.16;10334827;28;96863;-70
2022/07/07 06:58:37;;;;;;;2.60;1.50;;;;;;;17.56;54.07;96653.06;10343968;28;96736;-70
2022/07/07 07:03:40;;;;;;;2.35;1.40;;;;;;;17.72;54.05;96658.19;10334628;28;96875;-70
2022/07/07 07:08:44;;;;;;;2.25;1.23;;;;;;;17.88;53.14;96651.13;10334549;28;97329;-71
2022/07/07 07:13:49;;;;;;;3.17;1.33;;;;;;;18.00;51.99;96649.63;10332770;28;97887;-71
2022/07/07 07:18:51;;;;;;;3.35;1.38;;;;;;;18.00;52.21;96665.50;10333293;28;97151;-71
2022/07/07 07:23:55;;;;;;;2.25;1.60;;;;;;;18.03;51.99;96662.50;10330218;28;96770;-70
2022/07/07 07:28:59;;;;;;;2.45;1.20;;;;;;;18.19;51.16;96673.88;10322620;28;97008;-70
2022/07/07 07:34:02;;;;;;;4.57;1.67;;;;;;;18.30;50.78;96671.53;10333641;28;96831;-71
2022/07/07 07:39:06;;;;;;;2.58;1.52;;;;;;;18.33;50.95;96673.00;10331786;28;97616;-71
2022/07/07 07:44:10;;;;;;;1.90;1.33;;;;;;;18.47;50.40;96668.69;10333095;28;96776;-71
2022/07/07 07:49:13;;;;;;;3.35;1.13;;;;;;;18.69;50.74;96677.50;10333118;28;96754;-71
2022/07/07 07:54:16;;;;;;;2.55;1.10;;;;;;;18.80;49.61;96674.31;10332643;28;96801;-71
2022/07/07 07:59:20;;;;;;;2.75;1.58;;;;;;;18.85;49.49;96679.88;10332559;28;96944;-71
2022/07/07 08:04:23;;;;;;;1.90;1.13;;;;;;;19.02;50.33;96669.06;10331706;28;96811;-71
2022/07/07 08:09:27;;;;;;;5.18;1.85;;;;;;;19.16;49.72;96670.00;10332515;28;96793;-71
2022/07/07 08:14:31;;;;;;;3.95;1.20;;;;;;;19.21;50.00;96678.16;10304026;28;97950;-71
2022/07/07 08:19:34;;;;;;;3.85;1.20;;;;;;;19.28;50.33;96673.78;10290676;28;96874;-71
2022/07/07 08:24:37;;;;;;;2.65;1.40;;;;;;;19.46;49.53;96675.13;10290893;28;96735;-71
2022/07/07 08:29:41;;;;;;;4.13;1.40;;;;;;;19.60;49.54;96672.34;10289585;28;96798;-71
2022/07/07 08:34:48;;;;;;;3.00;1.45;;;;;;;19.67;49.23;96661.00;10290937;28;97048;-71
2022/07/07 08:39:51;;;;;;;3.28;1.60;;;;;;;19.75;48.79;96658.19;10288549;28;97294;-71
2022/07/07 08:44:55;;;;;;;5.35;1.88;;;;;;;19.90;48.74;96666.84;10291910;28;96893;-71
2022/07/07 08:50:00;;;;;;;3.90;1.33;;;;;;;20.08;48.82;96668.16;10293839;28;96964;-71
2022/07/07 08:55:03;;;;;;;4.30;1.45;;;;;;;20.25;48.58;96668.63;10296346;28;97178;-71
2022/07/07 09:00:09;;;;;;;2.17;1.10;;;;;;;20.36;48.45;96663.59;10289726;28;96945;-71
2022/07/07 09:05:12;;;;;;;3.85;1.48;;;;;;;20.42;47.37;96675.22;10303098;28;96794;-71
2022/07/07 09:10:31;;;;;;;2.85;1.50;;;;;;;20.42;47.68;96677.06;10289975;28;97203;-71
2022/07/07 09:15:40;;;;;;;2.28;1.45;;;;;;;20.53;48.00;96669.34;10329624;28;98637;-71
2022/07/07 09:20:43;;;;;;;2.17;1.40;;;;;;;20.64;47.68;96665.28;10336781;28;96798;-71
2022/07/07 09:25:46;;;;;;;3.58;1.70;;;;;;;20.59;46.69;96658.97;10337924;28;96847;-71
2022/07/07 09:30:50;;;;;;;3.67;1.42;;;;;;;20.67;47.14;96670.22;10337547;28;98840;-71
2022/07/07 09:41:17;;;;;;;1.83;1.30;;;;;;;21.12;46.75;96686.44;10337094;28;96940;-71
2022/07/07 09:46:23;;;;;;;7.45;1.52;;;;;;;21.32;45.92;96685.63;10337113;28;96900;-71
2022/07/07 09:51:27;;;;;;;2.95;1.40;;;;;;;21.31;45.82;96683.97;10337041;28;99005;-71
2022/07/07 09:56:31;;;;;;;;;;;;;;;21.25;45.91;96675.00;10337935;28;97746;-71
2022/07/07 10:01:37;;;;;;;2.55;1.20;;;;;;;21.47;46.54;96678.25;10336430;28;96699;-71
2022/07/07 10:06:41;;;;;;;3.03;1.65;;;;;;;21.69;45.80;96688.69;10330936;28;97255;-70
2022/07/07 10:11:46;;;;;;;3.17;1.50;;;;;;;21.87;46.03;96693.38;10310693;28;97240;-71
2022/07/07 10:16:52;;;;;;;2.53;1.50;;;;;;;22.03;45.46;96689.44;10308560;28;97153;-71
2022/07/07 10:21:57;;;;;;;2.88;1.40;;;;;;;22.10;45.51;96687.56;10315277;28;96851;-71
2022/07/07 10:27:01;;;;;;;3.08;1.30;;;;;;;22.37;44.91;96676.81;10321566;28;96809;-71
2022/07/07 10:32:07;;;;;;;3.88;1.40;;;;;;;22.28;45.12;96670.91;10319918;28;97248;-71
2022/07/07 10:37:12;;;;;;;1.77;1.23;;;;;;;22.41;44.17;96667.41;10312112;28;97651;-70
2022/07/07 10:42:42;;;;;;;4.05;1.50;;;;;;;22.50;44.62;96663.47;10321817;28;96921;-71
2022/07/07 10:47:46;;;;;;;3.25;1.45;;;;;;;22.81;44.12;96669.88;10322234;28;96926;-71
2022/07/07 10:52:49;;;;;;;2.70;1.38;;;;;;;22.92;43.87;96673.69;10321573;28;97249;-71
2022/07/07 10:58:12;;;;;;;2.65;1.50;;;;;;;22.97;44.07;96669.34;10322936;28;97127;-71
2022/07/07 11:03:17;;;;;;;4.72;1.33;;;;;;;22.94;43.78;96663.63;10323319;28;96814;-71
2022/07/07 11:08:20;;;;;;;1.63;1.30;;;;;;;23.18;43.28;96675.34;10323487;28;96903;-71
2022/07/07 11:13:32;;;;;;;2.17;1.20;;;;;;;23.60;42.79;96680.16;10286954;28;1201143;-71
2022/07/07 11:18:36;;;;;;;3.97;1.50;;;;;;;23.79;42.29;96667.66;10324697;28;98680;-71
2022/07/07 11:23:47;;;;;;;2.72;1.13;;;;;;;24.17;41.12;96664.00;10326034;28;96916;-71
2022/07/07 11:28:50;;;;;;;4.25;1.30;;;;;;;24.63;40.55;96667.94;10329052;28;98191;-71
2022/07/07 11:33:56;;;;;;;1.70;1.10;;;;;;;25.01;39.99;96659.59;10325735;28;96850;-72
2022/07/07 11:39:00;;;;;;;1.98;1.02;;;;;;;25.53;38.60;96661.63;10325827;28;98074;-72
2022/07/07 11:44:04;;;;;;;3.47;1.05;;;;;;;25.78;38.43;96652.56;10333431;28;96818;-72
2022/07/07 11:49:14;;;;;;;2.67;0.90;;;;;;;25.68;37.86;96652.34;10333344;28;96893;-72
2022/07/07 11:54:18;;;;;;;2.25;1.05;;;;;;;25.65;38.18;96648.28;10331712;28;96894;-71
2022/07/07 11:59:22;;;;;;;1.75;0.88;;;;;;;25.68;38.00;96638.97;10332541;28;96908;-71
2022/07/07 12:04:27;;;;;;;2.72;0.98;;;;;;;25.85;37.59;96631.03;10332381;28;97037;-71
2022/07/07 12:09:30;;;;;;;1.90;0.98;;;;;;;26.10;37.49;96636.09;10332639;28;97043;-71
2022/07/07 12:14:32;;;;;;;2.33;0.83;;;;;;;26.28;36.70;96641.31;10331757;28;96786;-71
2022/07/07 12:19:47;;;;;;;2.43;0.80;;;;;;;25.99;36.69;96641.25;10332573;28;97174;-71
2022/07/07 12:25:00;;;;;;;1.70;0.50;;;;;;;25.74;36.43;96646.06;10332397;28;97803;-71
2022/07/07 12:30:25;;;;;;;0.82;0.52;;;;;;;25.90;37.35;96629.28;10332352;28;98002;-71
2022/07/07 12:35:35;;;;;;;1.15;0.60;;;;;;;25.84;37.86;96648.94;10331595;28;96871;-71
2022/07/07 12:40:40;;;;;;;3.92;0.90;;;;;;;25.97;37.39;96651.38;10331144;28;96822;-71
2022/07/07 12:45:43;;;;;;;1.35;0.73;;;;;;;25.99;36.90;96649.28;10329782;28;97150;-71
2022/07/07 12:50:50;;;;;;;2.97;0.80;;;;;;;25.68;36.73;96641.66;10331442;28;96870;-71
2022/07/07 12:55:53;;;;;;;1.13;0.70;;;;;;;25.48;37.29;96647.31;10330990;28;97505;-71
2022/07/07 13:00:58;;;;;;;1.43;0.60;;;;;;;25.12;36.91;96638.47;10330805;28;96822;-71
2022/07/07 13:06:05;;;;;;;1.58;0.60;;;;;;;24.95;37.23;96638.31;10331051;28;97183;-71
2022/07/07 13:11:07;;;;;;;0.68;0.50;;;;;;;24.86;37.63;96646.66;10330686;28;96868;-71
2022/07/07 13:16:11;;;;;;;0.90;0.50;;;;;;;24.79;38.14;96661.94;10330581;28;96785;-71
2022/07/07 13:21:15;;;;;;;1.48;0.60;;;;;;;24.87;38.14;96658.97;10309626;28;96809;-71
2022/07/07 13:26:18;;;;;;;3.08;0.80;;;;;;;25.07;37.80;96652.50;10322771;28;96737;-71
2022/07/07 13:31:21;;;;;;;2.47;0.80;;;;;;;24.98;38.79;96665.38;10320775;28;96823;-70
2022/07/07 13:36:26;;;;;;;1.60;0.60;;;;;;;24.93;38.44;96656.44;10321852;28;97964;-71
2022/07/07 13:41:29;;;;;;;1.40;0.60;;;;;;;24.71;38.13;96683.63;10321830;28;97735;-70
2022/07/07 13:46:50;;;;;;;3.35;0.60;;;;;;;24.36;38.93;96657.59;10316375;28;96781;-70
2022/07/07 13:51:54;;;;;;;;;;;;;;;24.69;38.07;96673.16;10318521;28;96808;-70
2022/07/07 13:57:14;;;;;;;0.68;0.60;;;;;;;24.82;37.67;96671.41;10318272;28;97718;-71
2022/07/07 14:02:17;;;;;;;1.27;0.65;;;;;;;24.93;39.14;96677.81;10335002;28;97787;-71
2022/07/07 14:07:29;;;;;;;1.73;0.70;;;;;;;24.72;37.73;96671.91;10331876;28;97393;-71
2022/07/07 14:12:33;;;;;;;1.70;0.73;;;;;;;25.94;37.32;96675.13;10335313;28;96843;-70
2022/07/07 14:17:36;;;;;;;1.65;0.60;;;;;;;27.14;34.39;96645.81;10335810;28;96871;-71
2022/07/07 14:22:40;;;;;;;;;;;;;;;28.95;33.32;96647.94;10328491;28;97606;-71
2022/07/07 14:27:43;;;;;;;2.33;0.80;;;;;;;30.10;30.96;96660.06;10323826;28;97273;-71
2022/07/07 14:32:46;;;;;;;;;;;;;;;30.44;30.74;96665.09;10325839;28;97141;-71
2022/07/07 14:37:51;;;;;;;2.08;0.70;;;;;;;30.68;29.26;96659.19;10324137;28;96880;-71
2022/07/07 14:42:54;;;;;;;1.05;0.55;;;;;;;31.11;28.98;96646.34;10334995;28;96834;-71
2022/07/07 14:47:56;;;;;;;1.58;0.68;;;;;;;31.35;28.31;96657.44;10327449;28;96748;-71
2022/07/07 14:53:01;;;;;;;2.88;0.68;;;;;;;31.64;28.00;96646.06;10322874;28;96787;-71
2022/07/07 14:58:04;;;;;;;2.33;0.73;;;;;;;31.91;27.66;96643.03;10324523;28;97153;-71
2022/07/07 15:03:06;;;;;;;3.13;0.70;;;;;;;32.56;26.86;96653.09;10326801;28;97164;-71
2022/07/07 15:08:11;;;;;;;1.92;0.70;;;;;;;32.63;26.21;96652.75;10327690;28;96888;-71
2022/07/07 15:13:16;;;;;;;2.20;0.40;;;;;;;33.39;25.18;96648.72;10329291;28;96981;-71
2022/07/07 15:18:25;;;;;;;1.13;0.47;;;;;;;34.19;24.37;96642.00;10331994;28;97197;-72
2022/07/07 15:23:31;;;;;;;1.23;0.60;;;;;;;33.78;24.50;96642.44;10315313;28;97919;-72
2022/07/07 15:28:35;;;;;;;1.23;0.60;;;;;;;32.92;25.17;96644.75;10317230;28;97045;-72
2022/07/07 15:33:38;;;;;;;1.30;0.50;;;;;;;33.06;25.01;96645.75;10332238;28;97185;-72
2022/07/07 15:38:42;;;;;;;2.58;1.08;;;;;;;32.75;26.38;96674.06;10333773;28;96704;-72
2022/07/07 15:43:47;;;;;;;1.85;0.43;;;;;;;33.40;26.39;96669.31;10333009;28;96841;-72
2022/07/07 15:48:50;;;;;;;1.75;0.80;;;;;;;33.71;25.87;96677.19;10332953;28;97259;-72
2022/07/07 15:53:54;;;;;;;2.13;0.47;;;;;;;35.22;23.73;96677.78;10333422;28;96853;-72
2022/07/07 15:59:04;;;;;;;1.48;0.55;;;;;;;34.01;25.22;96681.47;10332693;28;97195;-72
2022/07/07 16:09:29;;;;;;;0.95;0.60;;;;;;;33.79;25.29;96676.56;10318193;28;97072;-72
2022/07/07 16:14:33;;;;;;;1.17;0.40;;;;;;;34.34;24.59;96683.56;10328450;28;98786;-72
2022/07/07 16:19:36;;;;;;;2.05;0.60;;;;;;;34.27;24.81;96680.41;10329118;28;96776;-72
2022/07/07 16:24:40;;;;;;;2.95;0.70;;;;;;;33.28;26.18;96685.13;10321545;28;98661;-72
2022/07/07 16:29:43;;;;;;;0.90;0.50;;;;;;;33.53;26.27;96675.94;10323551;28;97929;-72
2022/07/07 16:34:46;;;;;;;1.15;0.52;;;;;;;33.25;26.71;96680.25;10323378;28;96879;-72
2022/07/07 16:39:51;;;;;;;1.10;0.52;;;;;;;33.16;26.42;96671.13;10331684;28;96775;-73
2022/07/07 16:44:54;;;;;;;1.13;0.50;;;;;;;33.54;26.04;96671.34;10331556;28;96776;-74
2022/07/07 16:49:57;;;;;;;2.83;0.63;;;;;;;33.41;26.08;96667.41;10331265;28;97037;-73
2022/07/07 16:55:02;;;;;;;2.53;0.60;;;;;;;32.41;27.29;96669.38;10331555;28;96895;-73
2022/07/07 17:00:06;;;;;;;1.02;0.47;;;;;;;32.07;27.80;96675.44;10330098;28;96893;-73
2022/07/07 17:05:09;;;;;;;2.00;0.55;;;;;;;32.01;28.40;96684.66;10330277;28;96860;-73
2022/07/07 17:10:14;;;;;;;3.75;0.50;;;;;;;31.65;29.20;96669.28;10330426;28;96946;-73
2022/07/07 17:15:17;;;;;;;1.02;0.43;;;;;;;30.76;30.13;96672.19;10330424;28;96831;-72
2022/07/07 17:20:20;;;;;;;0.63;0.50;;;;;;;30.70;29.76;96673.22;10324045;28;97573;-72
2022/07/07 17:25:27;;;;;;;2.40;0.75;;;;;;;31.45;28.98;96659.31;10318682;28;97070;-72
2022/07/07 17:30:31;;;;;;;0.73;0.50;;;;;;;31.51;28.74;96655.53;10315591;28;96853;-72
2022/07/07 17:35:34;;;;;;;1.63;0.45;;;;;;;31.06;28.74;96681.41;10327427;28;97113;-72
2022/07/07 17:40:41;;;;;;;1.27;0.50;;;;;;;31.19;28.63;96658.47;10333798;28;96787;-72
2022/07/07 17:45:44;;;;;;;0.57;0.40;;;;;;;30.77;29.05;96673.84;10333098;28;96845;-72
2022/07/07 17:50:47;;;;;;;2.10;0.75;;;;;;;30.76;28.85;96672.19;10324270;28;97103;-72
2022/07/07 17:55:51;;;;;;;1.17;0.60;;;;;;;30.38;29.09;96671.50;10329453;28;97326;-72
2022/07/07 18:00:54;;;;;;;0.57;0.30;;;;;;;30.28;29.39;96671.47;10330415;28;96719;-72
2022/07/07 18:05:57;;;;;;;0.45;0.40;;;;;;;29.01;30.94;96674.88;10329757;28;96865;-72
2022/07/07 18:11:07;;;;;;;2.03;0.50;;;;;;;27.81;33.09;96679.06;10320711;28;96782;-72
2022/07/07 18:16:10;;;;;;;0.70;0.32;;;;;;;26.39;35.26;96679.84;10332322;28;98484;-73
2022/07/07 18:21:13;;;;;;;2.42;0.70;;;;;;;24.78;37.90;96684.38;10330111;28;96822;-73
2022/07/07 18:26:17;;;;;;;1.03;0.60;;;;;;;23.66;40.02;96674.75;10329296;28;96835;-71
2022/07/07 18:31:20;;;;;;;0.88;0.50;;;;;;;23.06;40.89;96683.22;10322874;28;97537;-72
2022/07/07 18:36:24;;;;;;;1.73;0.50;;;;;;;22.84;41.06;96698.75;10332352;28;96891;-71
2022/07/07 18:41:28;;;;;;;1.35;0.75;;;;;;;22.42;42.02;96695.63;10328079;28;96750;-71
2022/07/07 18:46:31;;;;;;;1.05;0.60;;;;;;;22.14;42.37;96694.09;10305002;28;98071;-71
2022/07/07 18:51:34;;;;;;;2.15;0.98;;;;;;;21.91;42.46;96699.09;10331618;28;99106;-71
2022/07/07 18:56:40;;;;;;;0.50;0.50;;;;;;;21.62;43.34;96711.81;10318118;28;98188;-72
2022/07/07 19:01:42;;;;;;;2.28;0.80;;;;;;;21.49;43.70;96712.63;10324092;28;97565;-71
2022/07/07 19:06:46;;;;;;;2.38;0.98;;;;;;;21.37;43.47;96717.72;10314398;28;97135;-71
2022/07/07 19:11:50;;;;;;;4.37;0.73;;;;;;;21.32;43.59;96733.47;10311305;28;97334;-71
2022/07/07 19:16:53;;;;;;;0.60;0.60;;;;;;;21.15;43.78;96732.22;10320960;28;98489;-71
2022/07/07 19:21:56;;;;;;;1.77;0.63;;;;;;;21.01;44.48;96736.69;10313117;28;96829;-71
2022/07/07 19:27:01;;;;;;;1.50;0.80;;;;;;;20.83;44.88;96740.72;10324210;28;97163;-71
2022/07/07 19:32:05;;;;;;;2.88;1.10;;;;;;;20.90;44.26;96762.00;10326186;28;96802;-71
2022/07/07 19:37:08;;;;;;;1.57;0.70;;;;;;;20.83;44.38;96761.97;10331243;28;96941;-71
2022/07/07 19:42:12;;;;;;;1.10;0.60;;;;;;;20.74;44.69;96764.00;10338402;28;97028;-71
2022/07/07 19:47:18;;;;;;;;;;;;;;;20.51;44.48;96774.91;10329507;28;97210;-71
2022/07/07 19:52:22;;;;;;;1.35;0.70;;;;;;;20.35;45.94;96785.84;10324895;28;96864;-71
2022/07/07 19:57:29;;;;;;;0.90;0.70;;;;;;;20.22;46.56;96791.06;10324530;28;97390;-71
2022/07/07 20:02:32;;;;;;;0.95;0.80;;;;;;;20.06;46.78;96789.53;10327192;28;97072;-71
2022/07/07 20:07:37;;;;;;;2.30;1.00;;;;;;;19.91;46.77;96800.25;10316880;28;97025;-74
2022/07/07 20:12:42;;;;;;;1.13;0.57;;;;;;;19.84;46.73;96808.16;10321541;28;99196;-65
2022/07/07 20:17:45;;;;;;;;;;;;;;;19.84;46.37;96808.16;10311424;28;97306;-69
2022/07/07 20:22:49;;;;;;;3.17;0.80;;;;;;;19.83;46.61;96818.94;10316043;28;98512;-69
2022/07/07 20:27:53;;;;;;;1.02;0.70;;;;;;;19.81;47.12;96827.06;10321968;28;98397;-69
2022/07/07 20:32:56;;;;;;;0.50;0.50;;;;;;;19.73;46.49;96832.47;10317950;28;97465;-70
2022/07/07 20:37:59;;;;;;;0.98;0.65;;;;;;;19.67;46.59;96838.56;10322059;28;97388;-69
2022/07/07 20:43:03;;;;;;;1.00;0.60;;;;;;;19.58;46.35;96832.56;10325002;28;97653;-70
2022/07/07 20:48:06;;;;;;;;;;;;;;;19.43;46.58;96835.28;10312114;28;97434;-70
2022/07/07 20:53:27;;;;;;;1.35;0.90;;;;;;;19.34;46.96;96842.53;10326069;28;97860;-69
2022/07/07 20:58:32;;;;;;;2.58;0.70;;;;;;;19.24;48.51;96842.84;10317529;28;96842;-69
2022/07/07 21:03:35;;;;;;;2.15;0.68;;;;;;;19.19;48.36;96839.09;10320248;28;96837;-69
2022/07/07 21:08:40;;;;;;;1.95;0.90;;;;;;;19.16;48.30;96855.38;10315533;28;96891;-69
2022/07/07 21:13:44;;;;;;;2.13;0.88;;;;;;;19.08;47.85;96851.00;10331835;28;97336;-69
2022/07/07 21:18:47;;;;;;;1.13;0.82;;;;;;;18.98;48.34;96845.19;10328422;28;98670;-69
2022/07/07 21:23:50;;;;;;;2.10;0.75;;;;;;;18.98;48.13;96847.84;10310042;28;96986;-69
2022/07/07 21:28:55;;;;;;;1.35;0.70;;;;;;;18.97;48.88;96838.25;10316560;28;96750;-69
2022/07/07 21:33:59;;;;;;;1.75;0.90;;;;;;;18.90;49.42;96845.28;10325918;28;98444;-69
2022/07/07 21:39:02;;;;;;;2.08;0.90;;;;;;;18.86;49.09;96850.13;10332408;28;98252;-69
2022/07/07 21:44:06;;;;;;;1.70;0.85;;;;;;;18.84;49.14;96850.28;10324077;28;98579;-69
2022/07/07 21:49:09;;;;;;;0.65;0.65;;;;;;;18.84;48.71;96858.22;10325475;28;96824;-69
2022/07/07 21:54:12;;;;;;;2.08;1.15;;;;;;;18.78;49.47;96853.69;10337835;28;97305;-69
2022/07/07 21:59:16;;;;;;;2.25;0.82;;;;;;;18.73;48.99;96849.94;10327327;28;97863;-69
2022/07/07 22:09:42;;;;;;;2.88;0.95;;;;;;;18.63;49.46;96844.94;10320838;28;97516;-69
2022/07/07 22:14:49;;;;;;;1.95;1.10;;;;;;;18.58;49.76;96849.94;10320725;28;98434;-69
2022/07/07 22:19:54;;;;;;;1.63;0.82;;;;;;;18.54;49.26;96843.38;10323701;28;96920;-68
2022/07/07 22:24:57;;;;;;;2.45;0.93;;;;;;;18.46;50.02;96839.84;10314341;28;96819;-69
2022/07/07 22:30:01;;;;;;;2.70;0.95;;;;;;;18.39;49.50;96854.78;10333515;28;96895;-69
2022/07/07 22:35:04;;;;;;;0.95;0.70;;;;;;;18.24;49.92;96852.13;10329877;28;96947;-69
2022/07/07 22:40:08;;;;;;;2.97;0.82;;;;;;;18.09;50.67;96849.47;10333220;28;96923;-69
2022/07/07 22:45:13;;;;;;;2.50;1.10;;;;;;;18.02;50.52;96848.53;10341132;28;97181;-69
2022/07/07 22:50:16;;;;;;;2.15;0.90;;;;;;;17.91;51.55;96854.28;10334228;28;97958;-70
2022/07/07 22:55:19;;;;;;;2.92;0.90;;;;;;;17.76;52.16;96859.47;10341562;28;96781;-68
2022/07/07 23:00:24;;;;;;;3.58;1.17;;;;;;;17.61;52.81;96864.69;10326224;28;98491;-69
2022/07/07 23:05:26;;;;;;;;;;;;;;;17.50;51.80;96865.13;10333414;28;98212;-68
2022/07/07 23:10:29;;;;;;;2.25;0.93;;;;;;;17.37;53.00;96866.53;10329390;28;96913;-69
2022/07/07 23:15:34;;;;;;;1.77;0.88;;;;;;;17.36;53.26;96864.88;10313522;28;97042;-69
2022/07/07 23:20:37;;;;;;;1.25;0.85;;;;;;;17.27;53.53;96876.50;10314220;28;98376;-68
2022/07/07 23:25:40;;;;;;;1.70;0.80;;;;;;;17.21;53.16;96871.88;10327278;28;97898;-69
2022/07/07 23:30:45;;;;;;;1.02;0.90;;;;;;;17.09;53.99;96871.50;10325718;28;98466;-68
2022/07/07 23:35:48;;;;;;;1.27;0.80;;;;;;;16.98;54.11;96869.22;10330162;28;98376;-68
2022/07/07 23:40:51;;;;;;;1.63;0.80;;;;;;;16.78;54.80;96871.47;10329476;28;97765;-68
2022/07/07 23:45:55;;;;;;;1.27;0.80;;;;;;;16.60;55.62;96864.53;10330678;28;97783;-68
2022/07/07 23:50:58;;;;;;;2.28;0.80;;;;;;;16.50;55.99;96879.78;10325991;28;97644;-68
2022/07/07 23:56:01;;;;;;;2.22;0.95;;;;;;;16.33;56.96;96873.72;10327942;28;97297;-68
